Historyczne dane pomiarowe

Dodano dane terminowe – wersja testowa.

Dane z okresu 1951-2019

Wersja bazy: 1.34 [2019-03-16, lista zmian], aktualizacja planowana na 2019-04-15

Dane meteo z obszaru Polski uzyskane na podstawie danych udostępnionych przez Instytut Meteorologii i Gospodarki Wodnej – Państwowy Instytut Badawczy.

 

Wybierz Datę:    

       

TemperaturaWilgotnośćWiatrCiśnienieOpadyŚniegCzas trwania zjawisk
 Stacja t tx tn tng RH VA  wxwx mslp ppp RRR   cm mm wxwxwxwxwxwxwx
1994-08-14 13.3 17.0 9.1 7.2 72.0- 5.3 4.7---- 0.0------------
1994-08-13 15.6 19.5 12.1 10.2 79.3- 6.0 5.3---- 0.8------------
1994-08-12 14.5 19.0 11.1 8.2 89.0- 8.0 4.7---- 10.5------------
1994-08-11 17.2 21.5 13.1 10.2 88.5- 7.0 4.0---- 8.2------------
1994-08-10 17.3 25.5 7.6 4.2 81.3- 2.7 1.3---- 1.4------------
1994-08-09 17.0 20.0 14.1 11.2 88.3- 8.0 4.0---- 7.7------------
1994-08-08 20.4 27.0 14.1 11.7 75.8- 6.7 4.7---- 0.2------------
1994-08-07 19.2 25.0 15.6 14.2 80.8- 7.7 2.7---- 0.2------------
1994-08-06 21.0 29.0 13.1 9.7 69.5- 2.7 3.3---- 1.8------------
1994-08-05 20.1 28.0 11.9 8.2 74.8- 0.7 2.7---- 0.0------------
1994-08-04 18.7 25.2 11.6 8.7 81.3- 3.7 2.7---- 0.0------------
1994-08-03 20.1 27.0 13.1 9.7 75.3- 5.0 4.7---- 9.4------------
1994-08-02 22.3 29.0 12.6 9.7 58.0- 3.3 3.3---- 0.0------------
1994-08-01 22.5 31.2 15.6 11.2 60.0- 5.7 4.7---- 0.2------------
1994-07-31 22.4 30.5 13.1 9.7 60.8- 3.0 4.0---- 0.0------------
1994-07-30 21.3 31.6 11.6 4.7 61.3- 0.7 2.7---- 0.0------------
1994-07-29 20.4 29.8 10.6 5.2 59.8- 1.3 1.3---- 0.0------------
1994-07-28 20.6 29.0 11.1 6.1 66.5- 3.3 3.3---- 0.0------------
1994-07-27 20.2 29.0 11.1 6.2 67.3- 2.0 2.7---- 0.0------------
1994-07-26 20.8 28.5 11.6 6.7 66.8- 2.7 4.0---- 0.0------------
1994-07-25 18.8 26.7 10.9 5.5 73.0- 4.7 3.3---- 2.3------------
1994-07-24 20.1 26.8 10.1 5.2 62.8- 3.7 4.0---- 0.0------------
1994-07-23 17.6 25.0 8.1 2.6 64.8- 2.7 4.0---- 0.0------------
1994-07-22 17.3 24.5 7.1 2.1 67.0- 2.0 4.7---- 0.0------------
1994-07-21 16.6 22.7 6.1 0.4 66.0- 2.3 3.3---- 0.0------------
1994-07-20 15.5 20.2 8.6 3.6 71.3- 3.3 3.3---- 0.0------------
1994-07-19 17.7 22.0 11.1 7.2 75.0- 5.3 4.7---- 0.0------------
1994-07-18 18.6 23.6 12.6 9.2 84.8- 4.3 4.7---- 0.0------------
1994-07-17 19.0 25.4 11.1 6.7 83.3- 5.3 4.7---- 16.2------------
1994-07-16 18.2 25.0 11.1 6.2 84.8- 5.3 2.7---- 2.4------------
1994-07-15 18.3 25.0 10.1 5.2 77.3- 2.7 2.7---- 0.0------------
1994-07-14 18.6 25.7 9.6 4.7 73.3- 4.7 4.0---- 0.6------------
1994-07-13 18.3 24.0 9.6 4.7 68.8- 4.7 4.0---- 0.0------------
1994-07-12 17.7 22.0 13.1 9.7 76.0- 5.0 5.3---- 0.0------------
1994-07-11 15.6 21.5 8.1 3.6 80.5- 6.0 4.0---- 0.0------------
1994-07-10 12.5 16.5 9.6 8.2 92.5- 7.3 5.3---- 5.4------------
1994-07-09 12.9 16.5 7.6 4.7 76.5- 7.7 4.0---- 7.3------------
1994-07-08 14.8 18.0 9.9 6.2 71.3- 5.3 4.7---- 1.0------------
1994-07-07 14.3 22.5 8.1 3.1 89.8- 7.3 1.3---- 7.9------------
1994-07-06 17.9 22.5 8.6 3.6 65.5- 4.0 2.7---- 0.0------------
1994-07-05 17.2 24.5 11.1 8.7 71.0- 6.0 2.7---- 0.0------------
1994-07-04 18.5 26.5 7.1 1.6 58.0- 2.0 3.3---- 0.0------------
1994-07-03 15.8 24.8 6.1 1.1 73.0- 2.7 3.3---- 0.0------------
1994-07-02 15.8 22.6 6.5 4.7 69.8- 2.0 2.7---- 0.0------------
1994-07-01 16.9 20.9 13.5 12.2 74.3- 3.0 2.7---- 0.0------------
1994-06-30 19.0 25.0 15.5 11.2 89.3- 6.7 3.3---- 1.2------------
1994-06-29 21.7 28.7 13.0 8.7 74.0- 2.0 4.0---- 0.5------------
1994-06-28 22.3 27.9 14.5 10.3 78.8- 3.0 2.0---- 0.0------------
1994-06-27 23.0 29.0 14.0 9.7 67.5- 3.3 5.3---- 0.0------------
1994-06-26 18.7 26.8 7.5 2.1 55.5- 2.0 4.0---- 0.0------------
1994-06-25 15.0 22.5 1.6 -4.1 51.5- 0.7 4.0---- 0.0------------
1994-06-24 12.7 19.0 3.6 -1.9 49.8- 2.7 4.7---- 0.0------------
1994-06-23 15.0 21.0 11.3 9.2 70.8- 5.3 5.3---- 0.0------------
1994-06-22 17.0 25.0 5.5 1.1 64.0- 3.7 6.0---- 0.2------------
1994-06-21 13.3 18.5 5.0 2.6 75.3- 3.7 4.0---- 0.0------------
1994-06-20 13.9 21.4 7.5 2.1 77.5- 5.0 5.3---- 0.0------------
1994-06-19 18.0 24.0 8.5 6.7 61.8- 5.7 5.3---- 0.0------------
1994-06-18 11.1 18.0 0.6 -3.4 79.3- 5.3 6.0---- 13.6------------
1994-06-17 9.2 12.4 6.0 2.1 77.3- 7.3 4.0---- 2.6------------
1994-06-16 10.9 14.5 3.1 -1.9 72.8- 6.0 5.3---- 4.3------------
451.9 ms

 

Źródłem pochodzenia danych jest Instytut Meteorologii i Gospodarki Wodnej – Państwowy Instytut Badawczy. Dane Instytutu Meteorologii i Gospodarki Wodnej – Państwowego Instytutu Badawczego zostały przetworzone.

Dane źródłowe można odnaleźć na stronie https://dane.imgw.pl